Time;durP1;ratioP1;P1;durP2;ratioP2;P2;SDS_P1;SDS_P2;PMS_P1;PMS_P2;Temp;Humidity;BMP_temperature;BMP_pressure;BME280_temperature;BME280_humidity;BME280_pressure;Samples;Min_cycle;Max_cycle;Signal;HPM_P1;HPM_P2
2021/08/04 00:00:23;;;;;;;2.25;1.45;;;24.00;46.80;;;;;;5053177;28;20045;-52
2021/08/04 00:02:49;;;;;;;2.10;1.55;;;24.00;46.90;;;;;;5051714;28;20024;-53
2021/08/04 00:05:15;;;;;;;2.00;1.40;;;24.00;46.90;;;;;;5051961;28;20032;-53
2021/08/04 00:07:40;;;;;;;2.63;1.45;;;23.90;47.40;;;;;;5052425;28;20033;-58
2021/08/04 00:10:07;;;;;;;1.70;1.30;;;23.90;46.80;;;;;;5052409;28;20033;-52
2021/08/04 00:12:33;;;;;;;1.45;1.00;;;23.90;46.80;;;;;;5051650;28;20070;-55
2021/08/04 00:14:58;;;;;;;1.80;1.20;;;23.90;46.90;;;;;;5051783;28;20032;-51
2021/08/04 00:17:24;;;;;;;1.73;1.27;;;23.90;46.90;;;;;;5051725;28;20021;-54
2021/08/04 00:19:50;;;;;;;1.67;1.25;;;23.90;46.90;;;;;;5052028;28;20032;-57
2021/08/04 00:22:16;;;;;;;2.45;1.30;;;23.90;46.90;;;;;;5051492;28;20111;-51
2021/08/04 00:24:41;;;;;;;1.67;1.20;;;23.90;47.00;;;;;;5051916;28;20033;-53
2021/08/04 00:27:07;;;;;;;2.05;1.27;;;23.90;46.90;;;;;;5051387;28;20047;-55
2021/08/04 00:29:33;;;;;;;1.35;1.17;;;23.90;46.90;;;;;;5033919;28;20039;-52
2021/08/04 00:31:59;;;;;;;1.58;1.20;;;23.90;47.00;;;;;;5051650;28;20029;-56
2021/08/04 00:34:25;;;;;;;2.17;1.30;;;23.90;47.00;;;;;;5051562;28;20087;-56
2021/08/04 00:36:50;;;;;;;2.33;1.35;;;23.90;47.00;;;;;;5033742;28;20033;-56
2021/08/04 00:39:17;;;;;;;1.92;1.20;;;23.90;47.00;;;;;;5033462;28;20116;-58
2021/08/04 00:41:43;;;;;;;1.73;1.20;;;23.90;47.00;;;;;;5034529;28;20037;-55
2021/08/04 00:44:09;;;;;;;1.48;1.10;;;23.80;47.00;;;;;;5033428;28;20094;-57
2021/08/04 00:46:41;;;;;;;2.03;1.30;;;23.80;47.00;;;;;;5033243;28;20029;-55
2021/08/04 00:49:09;;;;;;;1.70;1.13;;;23.80;47.00;;;;;;5026181;28;20079;-57
2021/08/04 00:51:35;;;;;;;1.63;1.33;;;23.80;47.10;;;;;;5051975;28;20029;-56
2021/08/04 00:54:05;;;;;;;1.55;1.30;;;23.80;47.10;;;;;;5051471;28;20104;-55
2021/08/04 00:56:31;;;;;;;2.72;1.38;;;23.80;47.10;;;;;;5052226;28;20025;-54
2021/08/04 00:58:58;;;;;;;1.80;1.08;;;23.80;47.10;;;;;;5033069;28;20025;-56
2021/08/04 01:01:31;;;;;;;1.67;1.20;;;23.80;47.10;;;;;;5034147;28;20116;-52
2021/08/04 01:04:04;;;;;;;1.65;1.20;;;23.80;47.10;;;;;;5033104;28;20104;-52
2021/08/04 01:06:46;;;;;;;1.35;0.98;;;23.80;47.10;;;;;;5033281;28;20052;-56
2021/08/04 01:09:14;;;;;;;1.30;1.10;;;23.80;47.20;;;;;;5049814;28;20132;-56
2021/08/04 01:11:53;;;;;;;1.90;1.20;;;23.70;47.10;;;;;;5035236;28;20030;-53
2021/08/04 01:14:22;;;;;;;1.45;1.02;;;23.70;47.20;;;;;;5036523;28;20502;-54
2021/08/04 01:16:51;;;;;;;2.80;1.23;;;23.70;47.20;;;;;;5036563;28;20338;-55
2021/08/04 01:20:04;;;;;;;1.48;1.10;;;23.70;47.20;;;;;;5036504;28;20040;-56
2021/08/04 01:22:56;;;;;;;1.80;1.10;;;23.70;47.10;;;;;;5037275;28;20132;-50
2021/08/04 01:25:32;;;;;;;1.45;1.00;;;23.70;47.20;;;;;;5054621;28;20040;-52
2021/08/04 01:28:27;;;;;;;1.42;1.17;;;23.70;47.30;;;;;;5036605;28;20032;-57
2021/08/04 01:30:59;;;;;;;2.55;1.10;;;23.70;47.30;;;;;;5036118;28;20029;-57
2021/08/04 01:33:26;;;;;;;2.22;1.25;;;23.70;47.30;;;;;;5034643;28;20024;-53
2021/08/04 01:35:54;;;;;;;1.00;0.90;;;23.70;47.40;;;;;;5054491;28;20021;-54
2021/08/04 01:38:22;;;;;;;1.98;1.30;;;23.70;47.40;;;;;;5055141;28;20025;-58
2021/08/04 01:40:50;;;;;;;1.60;1.00;;;23.60;47.40;;;;;;5054750;28;20033;-56
2021/08/04 01:43:18;;;;;;;1.50;1.15;;;23.60;47.40;;;;;;5036124;28;20025;-50
2021/08/04 01:45:45;;;;;;;1.83;1.27;;;23.60;47.40;;;;;;5035156;28;20037;-58
2021/08/04 01:48:11;;;;;;;2.08;1.15;;;23.60;47.40;;;;;;5037001;28;20341;-58
2021/08/04 01:50:38;;;;;;;1.17;0.95;;;23.60;47.40;;;;;;5036103;28;20348;-52
2021/08/04 01:53:05;;;;;;;1.20;1.05;;;23.60;47.40;;;;;;5054341;28;20317;-54
2021/08/04 01:55:31;;;;;;;1.90;1.20;;;23.60;47.40;;;;;;5036573;28;20104;-55
2021/08/04 01:57:58;;;;;;;1.40;1.02;;;23.60;47.40;;;;;;5053697;28;20025;-52
2021/08/04 02:00:24;;;;;;;1.92;1.00;;;23.60;47.40;;;;;;5035671;28;20424;-55
2021/08/04 02:02:50;;;;;;;1.83;0.88;;;23.60;47.40;;;;;;5036854;28;20057;-54
2021/08/04 02:05:15;;;;;;;2.25;1.40;;;23.60;47.40;;;;;;5036078;28;20114;-56
2021/08/04 02:08:26;;;;;;;1.50;1.15;;;23.60;47.40;;;;;;5033659;28;20376;-53
2021/08/04 02:11:45;;;;;;;1.38;1.00;;;23.60;47.40;;;;;;5010379;28;20060;-58
2021/08/04 02:14:25;;;;;;;1.23;1.10;;;23.60;47.40;;;;;;5015895;28;20041;-55
2021/08/04 02:17:06;;;;;;;2.25;1.25;;;23.60;47.50;;;;;;5037324;28;20029;-56
2021/08/04 02:19:50;;;;;;;2.40;1.33;;;23.60;47.50;;;;;;5053929;28;20039;-55
2021/08/04 02:22:52;;;;;;;1.67;0.93;;;23.60;47.50;;;;;;5034933;28;20049;-57
2021/08/04 02:25:23;;;;;;;1.65;1.20;;;23.60;47.50;;;;;;5034825;28;20025;-54
2021/08/04 02:27:52;;;;;;;1.60;1.00;;;23.50;47.60;;;;;;5032427;28;20114;-56
2021/08/04 02:30:19;;;;;;;1.15;1.05;;;23.50;47.60;;;;;;5053584;28;20338;-58
2021/08/04 02:32:46;;;;;;;1.85;1.17;;;23.50;47.60;;;;;;5033496;28;20364;-57
2021/08/04 02:35:12;;;;;;;1.83;1.00;;;23.50;47.60;;;;;;5035537;28;20056;-56
2021/08/04 02:37:38;;;;;;;2.33;1.10;;;23.50;47.60;;;;;;5054443;28;20033;-57
2021/08/04 02:40:06;;;;;;;1.92;1.00;;;23.50;47.60;;;;;;5035522;28;20025;-54
2021/08/04 02:42:33;;;;;;;1.35;0.80;;;23.50;47.60;;;;;;5034966;28;20113;-58
2021/08/04 02:44:59;;;;;;;1.48;1.00;;;23.50;47.60;;;;;;5035307;28;20021;-58
2021/08/04 02:47:26;;;;;;;1.20;0.90;;;23.50;47.60;;;;;;5052866;28;20090;-57
2021/08/04 02:49:52;;;;;;;1.10;0.90;;;23.50;47.60;;;;;;5053037;28;20364;-56
2021/08/04 02:52:19;;;;;;;2.30;1.10;;;23.50;47.60;;;;;;5053517;28;20033;-57
2021/08/04 02:54:46;;;;;;;0.95;0.80;;;23.50;47.60;;;;;;5051420;28;20451;-52
2021/08/04 02:57:13;;;;;;;2.25;0.98;;;23.50;47.60;;;;;;5032860;28;20029;-55
2021/08/04 02:59:39;;;;;;;1.52;0.85;;;23.50;47.60;;;;;;5035017;28;20021;-54
2021/08/04 03:02:05;;;;;;;1.67;1.08;;;23.50;47.60;;;;;;5052483;28;20094;-56
2021/08/04 03:04:31;;;;;;;1.08;0.90;;;23.50;47.60;;;;;;5052435;28;20067;-58
2021/08/04 03:06:57;;;;;;;1.30;0.98;;;23.50;47.60;;;;;;5052760;28;20353;-53
2021/08/04 03:09:22;;;;;;;1.38;1.00;;;23.50;47.60;;;;;;5053332;28;20028;-56
2021/08/04 03:11:48;;;;;;;1.40;0.80;;;23.50;47.60;;;;;;5052029;28;20445;-53
2021/08/04 03:14:14;;;;;;;1.20;1.08;;;23.50;47.60;;;;;;5051990;28;20036;-56
2021/08/04 03:16:40;;;;;;;1.80;1.10;;;23.50;47.60;;;;;;5051879;28;20453;-54
2021/08/04 03:19:06;;;;;;;1.55;0.85;;;23.40;47.50;;;;;;5036025;28;20043;-59
2021/08/04 03:21:32;;;;;;;1.45;0.95;;;23.40;47.50;;;;;;5052707;28;20406;-53
2021/08/04 03:23:57;;;;;;;1.50;0.70;;;23.40;47.50;;;;;;5052420;28;20029;-51
2021/08/04 03:26:23;;;;;;;1.80;1.20;;;23.40;47.50;;;;;;5053225;28;20028;-55
2021/08/04 03:28:49;;;;;;;0.85;0.70;;;23.40;47.50;;;;;;5052615;28;20051;-58
2021/08/04 03:31:15;;;;;;;1.02;0.93;;;23.50;47.60;;;;;;5051406;28;20132;-58
2021/08/04 03:33:41;;;;;;;0.70;0.70;;;23.40;47.60;;;;;;5051901;28;20029;-56
2021/08/04 03:36:06;;;;;;;2.28;0.90;;;23.40;47.60;;;;;;5051960;28;20040;-55
2021/08/04 03:38:32;;;;;;;0.90;0.80;;;23.40;47.70;;;;;;5052777;28;20456;-55
2021/08/04 03:40:59;;;;;;;0.85;0.80;;;23.40;47.70;;;;;;5052352;28;20467;-56
2021/08/04 03:43:24;;;;;;;1.13;0.70;;;23.40;47.70;;;;;;5048663;28;20029;-53
2021/08/04 03:45:50;;;;;;;1.20;0.80;;;23.40;47.70;;;;;;5050585;28;20112;-57
2021/08/04 03:48:16;;;;;;;0.90;0.80;;;23.40;47.70;;;;;;5033599;28;20029;-56
2021/08/04 03:50:42;;;;;;;2.88;0.90;;;23.40;47.70;;;;;;5052612;28;20037;-54
2021/08/04 03:53:07;;;;;;;1.20;0.90;;;23.40;47.70;;;;;;5052213;28;20440;-57
2021/08/04 03:55:33;;;;;;;1.10;0.90;;;23.40;47.70;;;;;;5051653;28;20428;-57
2021/08/04 03:57:59;;;;;;;1.10;1.00;;;23.40;47.70;;;;;;5052887;28;20334;-54
2021/08/04 04:00:25;;;;;;;0.80;0.80;;;23.40;47.70;;;;;;5050004;28;20047;-52
2021/08/04 04:02:50;;;;;;;1.05;0.80;;;23.30;47.60;;;;;;5052595;28;20044;-55
2021/08/04 04:05:16;;;;;;;1.35;0.88;;;23.40;47.70;;;;;;5051628;28;20087;-56
2021/08/04 04:07:42;;;;;;;1.63;1.00;;;23.30;47.70;;;;;;5051740;28;20072;-57
2021/08/04 04:10:09;;;;;;;1.25;0.98;;;23.40;47.70;;;;;;5034059;28;20048;-56
2021/08/04 04:12:36;;;;;;;1.80;1.00;;;23.30;47.70;;;;;;5048836;28;20401;-57
2021/08/04 04:15:02;;;;;;;1.33;0.98;;;23.30;47.70;;;;;;5051585;28;20112;-55
2021/08/04 04:17:28;;;;;;;0.88;0.73;;;23.30;47.70;;;;;;5051450;28;20044;-56
2021/08/04 04:19:54;;;;;;;0.90;0.80;;;23.30;47.70;;;;;;5052551;28;20316;-56
2021/08/04 04:22:21;;;;;;;1.67;0.98;;;23.30;47.60;;;;;;5046475;28;20521;-55
2021/08/04 04:24:47;;;;;;;0.93;0.82;;;23.30;47.60;;;;;;5051728;28;20048;-55
2021/08/04 04:27:13;;;;;;;1.10;0.90;;;23.30;47.60;;;;;;5051445;28;20041;-54
2021/08/04 04:29:39;;;;;;;1.20;0.80;;;23.30;47.60;;;;;;5051660;28;20036;-59
2021/08/04 04:32:09;;;;;;;1.50;0.90;;;23.30;47.60;;;;;;5051292;28;20017;-57
2021/08/04 04:34:35;;;;;;;1.00;0.80;;;23.30;48.20;;;;;;5051572;28;20349;-56
2021/08/04 04:37:00;;;;;;;0.80;0.80;;;23.30;47.60;;;;;;5051356;28;20025;-58
2021/08/04 04:39:26;;;;;;;0.73;0.68;;;23.30;47.60;;;;;;5052305;28;20028;-57
2021/08/04 04:41:53;;;;;;;0.80;0.80;;;23.30;47.70;;;;;;5050914;28;20122;-56
2021/08/04 04:44:19;;;;;;;1.13;0.85;;;23.30;47.70;;;;;;5052040;28;20029;-55
2021/08/04 04:46:44;;;;;;;0.70;0.70;;;23.30;47.70;;;;;;5054400;28;20095;-52
2021/08/04 04:49:10;;;;;;;1.23;0.77;;;23.30;47.60;;;;;;5055473;28;20094;-52
2021/08/04 04:51:36;;;;;;;1.25;1.00;;;23.30;47.70;;;;;;5055131;28;20705;-56
2021/08/04 04:54:02;;;;;;;0.90;0.80;;;23.30;47.70;;;;;;5055266;28;20025;-53
2021/08/04 04:56:27;;;;;;;0.80;0.70;;;23.30;47.70;;;;;;5055366;28;20037;-56
2021/08/04 04:58:54;;;;;;;0.60;0.60;;;23.30;47.70;;;;;;5056334;28;20033;-53
2021/08/04 05:01:21;;;;;;;0.70;0.68;;;23.30;47.70;;;;;;5054192;28;20041;-54
2021/08/04 05:03:47;;;;;;;1.38;0.90;;;23.30;47.80;;;;;;5054041;28;20025;-58
2021/08/04 05:06:12;;;;;;;0.80;0.75;;;23.30;47.80;;;;;;5055437;28;20108;-57
2021/08/04 05:08:38;;;;;;;1.30;0.82;;;23.30;47.80;;;;;;5054248;28;20187;-56
2021/08/04 05:11:04;;;;;;;0.90;0.80;;;23.30;47.80;;;;;;5053048;28;20028;-56
2021/08/04 05:13:30;;;;;;;0.93;0.77;;;23.30;47.90;;;;;;5051793;28;20044;-53
2021/08/04 05:15:56;;;;;;;0.80;0.80;;;23.30;47.90;;;;;;5051610;28;20047;-54
2021/08/04 05:18:22;;;;;;;0.70;0.70;;;23.30;47.90;;;;;;5051425;28;20129;-54
2021/08/04 05:20:48;;;;;;;0.80;0.65;;;23.30;47.90;;;;;;5051948;28;20064;-50
2021/08/04 05:23:14;;;;;;;1.17;0.75;;;23.30;48.00;;;;;;5053329;28;20112;-57
2021/08/04 05:25:40;;;;;;;1.30;0.90;;;23.30;48.00;;;;;;5052821;28;20369;-55
2021/08/04 05:28:06;;;;;;;1.70;0.90;;;23.30;48.00;;;;;;5053611;28;20115;-56
2021/08/04 05:30:32;;;;;;;0.93;0.75;;;23.30;48.00;;;;;;5053794;28;20032;-55
2021/08/04 05:32:58;;;;;;;1.00;0.80;;;23.30;48.10;;;;;;5053602;28;20025;-54
2021/08/04 05:35:24;;;;;;;1.17;0.73;;;23.30;48.10;;;;;;5054524;28;20036;-58
2021/08/04 05:37:50;;;;;;;0.80;0.70;;;23.30;48.10;;;;;;5052938;28;20074;-56
2021/08/04 05:40:16;;;;;;;1.13;0.90;;;23.30;48.20;;;;;;5049037;28;20443;-54
2021/08/04 05:42:41;;;;;;;1.30;0.90;;;23.30;48.30;;;;;;5052962;28;20088;-59
2021/08/04 05:45:08;;;;;;;1.00;0.80;;;23.30;48.30;;;;;;5053853;28;20025;-54
2021/08/04 05:47:34;;;;;;;1.20;0.90;;;23.30;48.30;;;;;;5051862;28;20108;-56
2021/08/04 05:49:59;;;;;;;1.00;0.80;;;23.40;48.40;;;;;;5054797;28;20121;-56
2021/08/04 05:52:25;;;;;;;1.05;0.73;;;23.40;48.40;;;;;;5054225;28;20448;-56
2021/08/04 05:54:51;;;;;;;1.67;0.90;;;23.30;48.40;;;;;;5054859;28;20056;-56
2021/08/04 05:57:17;;;;;;;0.82;0.80;;;23.30;48.40;;;;;;5054859;28;20095;-54
2021/08/04 05:59:43;;;;;;;1.20;0.90;;;23.30;48.40;;;;;;5055371;28;20028;-56
2021/08/04 06:02:08;;;;;;;1.33;0.90;;;23.40;48.50;;;;;;5054889;28;20036;-55
2021/08/04 06:04:34;;;;;;;1.13;0.80;;;23.40;48.50;;;;;;5055676;28;20033;-53
2021/08/04 06:07:00;;;;;;;0.77;0.77;;;23.40;48.60;;;;;;5055264;28;20033;-57
2021/08/04 06:09:26;;;;;;;1.02;0.82;;;23.40;48.60;;;;;;5045899;28;20037;-58
2021/08/04 06:11:52;;;;;;;1.13;0.88;;;23.40;49.30;;;;;;5035519;28;20057;-56
2021/08/04 06:14:18;;;;;;;0.70;0.70;;;23.40;48.70;;;;;;5043853;28;20384;-58
2021/08/04 06:16:43;;;;;;;1.00;0.70;;;23.40;48.70;;;;;;5053897;28;20082;-59
2021/08/04 06:19:09;;;;;;;0.90;0.70;;;23.40;48.80;;;;;;5055451;28;20039;-58
2021/08/04 06:21:35;;;;;;;0.88;0.77;;;23.40;48.80;;;;;;5054818;28;20040;-58
2021/08/04 06:24:01;;;;;;;0.70;0.60;;;23.40;48.80;;;;;;5054074;28;20025;-59
2021/08/04 06:26:27;;;;;;;0.68;0.68;;;23.40;48.90;;;;;;5053674;28;20379;-54
2021/08/04 06:28:52;;;;;;;0.73;0.70;;;23.40;48.90;;;;;;5053380;28;20025;-56
2021/08/04 06:31:18;;;;;;;1.80;0.90;;;23.40;48.90;;;;;;5053747;28;20033;-57
2021/08/04 06:33:44;;;;;;;1.70;1.10;;;23.40;48.90;;;;;;5054180;28;20167;-56
2021/08/04 06:36:09;;;;;;;0.95;0.65;;;23.50;49.00;;;;;;5053934;28;20047;-57
2021/08/04 06:38:35;;;;;;;1.02;0.70;;;23.40;49.00;;;;;;5054667;28;20040;-55
2021/08/04 06:41:01;;;;;;;0.93;0.80;;;23.50;49.00;;;;;;5054693;28;20386;-56
2021/08/04 06:43:27;;;;;;;2.20;0.80;;;23.40;49.00;;;;;;5038474;28;20450;-52
2021/08/04 06:45:53;;;;;;;0.60;0.50;;;23.50;49.10;;;;;;5034844;28;20087;-56
2021/08/04 06:48:19;;;;;;;2.20;0.70;;;23.50;49.10;;;;;;5045417;28;20057;-53
2021/08/04 06:50:45;;;;;;;0.80;0.80;;;23.50;49.10;;;;;;5036907;28;20116;-58
2021/08/04 06:53:11;;;;;;;1.10;0.57;;;23.50;49.10;;;;;;5054883;28;20123;-55
2021/08/04 06:55:36;;;;;;;0.60;0.60;;;23.50;49.10;;;;;;5054592;28;20132;-59
2021/08/04 06:58:02;;;;;;;0.77;0.60;;;23.50;49.10;;;;;;5054831;28;20025;-59
2021/08/04 07:00:28;;;;;;;0.68;0.68;;;23.50;49.20;;;;;;5054611;28;20041;-54
2021/08/04 07:02:54;;;;;;;0.85;0.70;;;23.50;49.20;;;;;;5053889;28;20139;-55
2021/08/04 07:05:20;;;;;;;0.88;0.70;;;23.50;49.20;;;;;;5054403;28;20030;-56
2021/08/04 07:07:46;;;;;;;0.80;0.70;;;23.50;49.10;;;;;;5054054;28;20040;-55
2021/08/04 07:10:13;;;;;;;0.80;0.80;;;23.50;49.20;;;;;;5053962;28;20029;-55
2021/08/04 07:12:40;;;;;;;1.00;0.60;;;23.50;49.20;;;;;;5053753;28;20112;-54
2021/08/04 07:15:06;;;;;;;0.93;0.70;;;23.50;49.10;;;;;;5053949;28;20033;-56
2021/08/04 07:17:46;;;;;;;0.80;0.70;;;23.50;49.10;;;;;;5054406;28;20072;-58
2021/08/04 07:20:17;;;;;;;1.17;0.80;;;23.50;49.10;;;;;;5054048;28;20045;-57
2021/08/04 07:22:43;;;;;;;0.63;0.63;;;23.60;49.20;;;;;;5036376;28;20033;-55
2021/08/04 07:25:10;;;;;;;0.70;0.60;;;23.60;49.20;;;;;;5054503;28;20044;-59
2021/08/04 07:27:37;;;;;;;0.80;0.80;;;23.60;49.20;;;;;;5053998;28;20079;-57
2021/08/04 07:30:05;;;;;;;0.60;0.60;;;23.50;49.10;;;;;;5036143;28;20086;-57
2021/08/04 07:32:31;;;;;;;0.70;0.70;;;23.50;49.20;;;;;;5035192;28;20071;-54
2021/08/04 07:35:00;;;;;;;1.50;0.80;;;23.60;49.20;;;;;;5035409;28;20064;-58
2021/08/04 07:37:27;;;;;;;0.70;0.68;;;23.60;49.20;;;;;;5049120;28;20044;-54
2021/08/04 07:39:53;;;;;;;1.00;0.70;;;23.60;49.20;;;;;;5048207;28;20111;-54
2021/08/04 07:42:19;;;;;;;1.13;0.70;;;23.60;49.20;;;;;;5047579;28;20136;-53
2021/08/04 07:44:45;;;;;;;1.00;0.80;;;23.60;49.20;;;;;;5053874;28;20025;-56
2021/08/04 07:47:11;;;;;;;0.70;0.60;;;23.60;49.20;;;;;;5049680;28;20036;-58
2021/08/04 07:49:37;;;;;;;1.25;0.70;;;23.60;49.20;;;;;;5053717;28;20053;-55
2021/08/04 07:52:03;;;;;;;1.20;0.95;;;23.60;49.20;;;;;;5053527;28;20158;-53
2021/08/04 07:54:28;;;;;;;0.82;0.77;;;23.60;49.20;;;;;;5053614;28;20124;-55
2021/08/04 07:56:54;;;;;;;0.60;0.55;;;23.60;49.20;;;;;;5053339;28;20503;-57
2021/08/04 07:59:20;;;;;;;0.88;0.70;;;23.60;49.20;;;;;;5053037;28;20025;-59
2021/08/04 08:01:46;;;;;;;0.73;0.68;;;23.70;49.20;;;;;;5053458;28;20103;-55
2021/08/04 08:04:11;;;;;;;0.60;0.60;;;23.60;49.20;;;;;;5053325;28;20024;-59
2021/08/04 08:06:37;;;;;;;0.63;0.57;;;23.70;49.20;;;;;;5053734;28;20079;-55
2021/08/04 08:09:03;;;;;;;0.60;0.60;;;23.70;49.20;;;;;;5053377;28;20116;-56
2021/08/04 08:11:29;;;;;;;1.27;0.60;;;23.70;49.20;;;;;;5052848;28;20043;-56
2021/08/04 08:13:54;;;;;;;1.00;0.80;;;23.70;49.20;;;;;;5053051;28;20059;-55
2021/08/04 08:16:20;;;;;;;1.08;0.70;;;23.70;49.20;;;;;;5034660;28;20036;-56
2021/08/04 08:18:46;;;;;;;1.00;0.70;;;23.70;49.20;;;;;;5053281;28;20021;-57
2021/08/04 08:21:12;;;;;;;0.98;0.80;;;23.70;49.20;;;;;;5057012;28;20049;-55
2021/08/04 08:23:38;;;;;;;2.03;0.80;;;23.70;49.20;;;;;;5057344;28;20033;-56
2021/08/04 08:26:04;;;;;;;0.63;0.63;;;23.80;49.30;;;;;;5057180;28;20028;-58
2021/08/04 08:28:30;;;;;;;1.45;0.80;;;23.80;49.30;;;;;;5057505;28;20033;-56
2021/08/04 08:30:56;;;;;;;1.20;0.60;;;23.70;49.30;;;;;;5039341;28;20059;-58
2021/08/04 08:33:21;;;;;;;1.27;0.70;;;23.80;49.30;;;;;;5057012;28;20025;-54
2021/08/04 08:35:47;;;;;;;1.30;0.80;;;23.80;49.40;;;;;;5057551;28;20031;-56
2021/08/04 08:38:13;;;;;;;0.80;0.60;;;23.80;49.40;;;;;;5056697;28;20028;-57
2021/08/04 08:40:39;;;;;;;1.02;0.70;;;23.80;49.40;;;;;;5056712;28;20120;-53
2021/08/04 08:43:05;;;;;;;1.27;0.70;;;23.80;49.40;;;;;;5056878;28;20445;-54
2021/08/04 08:45:31;;;;;;;1.13;0.65;;;23.90;49.40;;;;;;5056448;28;20021;-54
2021/08/04 08:47:57;;;;;;;0.98;0.63;;;23.90;49.30;;;;;;5057321;28;20047;-57
2021/08/04 08:50:26;;;;;;;0.65;0.65;;;23.90;49.30;;;;;;5056182;28;20421;-52
2021/08/04 08:52:56;;;;;;;0.88;0.70;;;23.90;49.20;;;;;;5056873;28;20402;-57
2021/08/04 08:55:22;;;;;;;0.90;0.77;;;23.90;49.10;;;;;;5056883;28;20029;-57
2021/08/04 08:57:48;;;;;;;0.77;0.75;;;23.90;49.10;;;;;;5056608;28;20348;-53
2021/08/04 09:00:14;;;;;;;0.65;0.65;;;23.90;49.00;;;;;;5056955;28;20337;-56
2021/08/04 09:02:42;;;;;;;0.60;0.60;;;24.00;49.00;;;;;;5055317;28;20057;-57
2021/08/04 09:05:09;;;;;;;0.60;0.50;;;24.00;48.90;;;;;;5038282;28;20059;-58
2021/08/04 09:07:37;;;;;;;0.60;0.60;;;24.00;48.80;;;;;;5056194;28;20040;-58
2021/08/04 09:10:33;;;;;;;1.20;0.68;;;24.00;48.70;;;;;;5056419;28;20032;-59
2021/08/04 09:13:03;;;;;;;1.13;0.50;;;24.00;48.60;;;;;;5056169;28;20510;-57
2021/08/04 09:15:40;;;;;;;0.80;0.60;;;24.00;48.50;;;;;;5054978;28;20029;-59
2021/08/04 09:18:14;;;;;;;1.83;0.60;;;24.10;48.40;;;;;;5053885;28;20456;-57
2021/08/04 09:20:53;;;;;;;0.90;0.68;;;24.10;48.40;;;;;;5056282;28;20041;-57
2021/08/04 09:23:21;;;;;;;0.90;0.43;;;24.10;48.30;;;;;;5056300;28;20098;-56
2021/08/04 09:26:09;;;;;;;0.60;0.60;;;24.10;48.20;;;;;;5055397;28;20025;-60
2021/08/04 09:28:59;;;;;;;1.08;0.60;;;24.20;47.90;;;;;;5055577;28;20432;-59
2021/08/04 09:31:48;;;;;;;0.70;0.47;;;24.20;47.90;;;;;;5055715;28;20036;-58
2021/08/04 09:34:39;;;;;;;0.70;0.52;;;24.20;47.70;;;;;;5038604;28;20040;-61
2021/08/04 09:37:16;;;;;;;0.55;0.50;;;24.30;47.50;;;;;;5054522;28;20460;-61
2021/08/04 09:39:54;;;;;;;0.73;0.52;;;24.30;47.40;;;;;;5055330;28;20025;-60
2021/08/04 09:42:21;;;;;;;0.85;0.60;;;24.40;47.30;;;;;;5048309;28;20063;-61
2021/08/04 09:44:54;;;;;;;0.82;0.57;;;24.40;47.10;;;;;;5037288;28;20035;-58
2021/08/04 09:47:21;;;;;;;0.95;0.63;;;24.40;46.90;;;;;;5049874;28;20025;-56
2021/08/04 09:49:57;;;;;;;0.75;0.70;;;24.40;46.80;;;;;;5056349;28;20119;-58
2021/08/04 09:52:23;;;;;;;0.73;0.57;;;24.50;46.70;;;;;;5055216;28;20463;-59
2021/08/04 09:54:49;;;;;;;0.70;0.60;;;24.50;46.60;;;;;;5056070;28;20076;-59
2021/08/04 09:57:15;;;;;;;1.00;0.80;;;24.50;46.50;;;;;;5055279;28;20128;-58
2021/08/04 10:00:00;;;;;;;1.20;0.52;;;24.50;46.40;;;;;;5055921;28;20098;-59
2021/08/04 10:02:29;;;;;;;0.80;0.70;;;24.60;46.30;;;;;;5042851;28;20037;-57
2021/08/04 10:05:22;;;;;;;0.63;0.55;;;24.60;46.20;;;;;;5054422;28;20028;-60
2021/08/04 10:08:06;;;;;;;0.85;0.70;;;24.60;46.00;;;;;;5054242;28;20095;-55
2021/08/04 10:10:36;;;;;;;0.95;0.70;;;24.70;45.90;;;;;;5052215;28;20502;-58
2021/08/04 10:13:05;;;;;;;1.00;0.65;;;24.70;45.90;;;;;;5054484;28;20060;-60
2021/08/04 10:15:39;;;;;;;0.52;0.50;;;24.70;45.80;;;;;;5054648;28;20098;-60
2021/08/04 10:18:07;;;;;;;0.75;0.68;;;24.80;45.80;;;;;;5037438;28;20041;-61
2021/08/04 10:20:33;;;;;;;0.60;0.50;;;24.70;45.70;;;;;;5019893;28;20411;-63
2021/08/04 10:23:00;;;;;;;0.90;0.70;;;24.80;45.70;;;;;;5054923;28;20029;-59
2021/08/04 10:25:25;;;;;;;0.43;0.43;;;24.80;45.60;;;;;;5035551;28;20040;-56
2021/08/04 10:27:51;;;;;;;1.15;0.52;;;24.80;45.60;;;;;;5047234;28;20028;-58
2021/08/04 10:30:17;;;;;;;1.65;0.80;;;24.80;45.50;;;;;;5037154;28;20041;-54
2021/08/04 10:32:44;;;;;;;0.50;0.50;;;24.80;45.40;;;;;;5054742;28;20040;-52
2021/08/04 10:35:10;;;;;;;0.98;0.70;;;24.80;45.30;;;;;;5021639;28;20029;-59
2021/08/04 10:37:39;;;;;;;0.73;0.60;;;24.90;45.20;;;;;;5053251;28;20341;-56
2021/08/04 10:40:07;;;;;;;1.00;0.60;;;25.00;45.10;;;;;;5054065;28;20112;-58
2021/08/04 10:42:38;;;;;;;0.70;0.50;;;25.00;45.00;;;;;;5035290;28;20136;-53
2021/08/04 10:45:22;;;;;;;0.88;0.60;;;25.10;44.80;;;;;;5054553;28;20444;-59
2021/08/04 10:47:49;;;;;;;0.47;0.47;;;25.10;44.60;;;;;;5054457;28;20365;-57
2021/08/04 10:50:15;;;;;;;0.85;0.52;;;25.10;44.60;;;;;;5053004;28;20033;-58
2021/08/04 10:53:02;;;;;;;0.70;0.50;;;25.10;44.60;;;;;;5053554;28;20376;-61
2021/08/04 10:55:49;;;;;;;1.10;0.70;;;25.20;44.50;;;;;;5053887;28;20029;-62
2021/08/04 10:58:15;;;;;;;0.80;0.50;;;25.20;44.60;;;;;;5052525;28;20021;-60
2021/08/04 11:00:46;;;;;;;0.95;0.50;;;25.30;44.60;;;;;;5050537;28;20132;-63
2021/08/04 11:03:40;;;;;;;1.38;0.60;;;25.30;44.60;;;;;;5047616;28;20054;-59
2021/08/04 11:06:07;;;;;;;;;;;25.30;44.60;;;;;;5043298;28;20045;-59
2021/08/04 11:08:38;;;;;;;0.52;0.52;;;25.30;44.70;;;;;;5044705;28;19912;-58
2021/08/04 11:11:04;;;;;;;1.42;0.60;;;25.40;44.80;;;;;;5027078;28;20033;-60
2021/08/04 11:13:44;;;;;;;0.63;0.50;;;25.40;44.60;;;;;;5052383;28;20053;-56
2021/08/04 11:16:25;;;;;;;0.50;0.50;;;25.40;44.50;;;;;;5050215;28;20037;-55
2021/08/04 11:19:05;;;;;;;0.75;0.57;;;25.40;44.40;;;;;;5044369;28;20071;-62
2021/08/04 11:21:31;;;;;;;0.90;0.55;;;25.50;44.50;;;;;;5053368;28;20040;-62
2021/08/04 11:23:59;;;;;;;0.88;0.50;;;25.50;44.50;;;;;;5034913;28;20162;-61
2021/08/04 11:26:39;;;;;;;0.90;0.80;;;25.50;44.50;;;;;;5053280;28;20094;-61
2021/08/04 11:29:06;;;;;;;0.85;0.60;;;25.60;44.60;;;;;;5052800;28;20325;-59
2021/08/04 11:31:33;;;;;;;1.13;0.68;;;25.50;44.60;;;;;;5053554;28;20040;-62
2021/08/04 11:34:26;;;;;;;0.90;0.38;;;25.60;44.60;;;;;;5050697;28;20051;-59
2021/08/04 11:36:59;;;;;;;1.15;0.77;;;25.60;44.40;;;;;;5050980;28;20400;-61
2021/08/04 11:39:25;;;;;;;0.93;0.63;;;25.60;44.40;;;;;;5053528;28;20032;-62
2021/08/04 11:41:50;;;;;;;3.80;0.98;;;25.60;44.50;;;;;;5049406;28;20041;-63
2021/08/04 11:44:29;;;;;;;3.17;0.90;;;25.70;44.60;;;;;;5046327;28;20108;-63
2021/08/04 11:47:08;;;;;;;0.85;0.70;;;25.70;44.70;;;;;;5052725;28;20348;-60
2021/08/04 11:49:37;;;;;;;0.98;0.60;;;25.80;44.70;;;;;;5035092;28;20108;-57
2021/08/04 11:52:14;;;;;;;1.23;0.77;;;25.80;44.70;;;;;;5052949;28;20044;-59
2021/08/04 11:54:45;;;;;;;1.05;0.60;;;25.80;44.60;;;;;;5053386;28;20032;-60
2021/08/04 11:57:14;;;;;;;1.20;0.70;;;25.90;44.50;;;;;;5035795;28;20041;-55
2021/08/04 12:00:09;;;;;;;0.77;0.60;;;25.90;44.40;;;;;;5052857;28;20041;-65
2021/08/04 12:02:38;;;;;;;1.08;0.60;;;25.90;44.20;;;;;;5052198;28;20392;-61
2021/08/04 12:05:07;;;;;;;0.70;0.70;;;25.90;44.20;;;;;;5035308;28;20060;-61
2021/08/04 12:07:34;;;;;;;1.00;0.65;;;25.90;44.10;;;;;;5052519;28;20033;-63
2021/08/04 12:10:06;;;;;;;0.60;0.50;;;26.00;44.10;;;;;;5052643;28;20558;-62
2021/08/04 12:12:43;;;;;;;1.67;0.90;;;26.00;43.90;;;;;;5031527;28;20464;-60
2021/08/04 12:15:17;;;;;;;1.30;0.75;;;26.00;43.80;;;;;;5032252;28;20337;-63
2021/08/04 12:17:43;;;;;;;0.50;0.50;;;26.00;43.80;;;;;;5033595;28;20030;-62
2021/08/04 12:20:23;;;;;;;0.75;0.60;;;26.00;43.70;;;;;;5033751;28;20260;-60
2021/08/04 12:23:03;;;;;;;0.85;0.80;;;26.00;43.60;;;;;;5033611;28;20365;-60
2021/08/04 12:25:31;;;;;;;0.70;0.70;;;26.00;43.60;;;;;;5033793;28;20041;-60
2021/08/04 12:27:59;;;;;;;0.90;0.63;;;26.00;43.60;;;;;;5032748;28;20033;-63
2021/08/04 12:30:40;;;;;;;0.60;0.45;;;26.00;43.60;;;;;;5029950;28;20096;-62
2021/08/04 12:33:16;;;;;;;0.52;0.52;;;26.10;43.50;;;;;;5033029;28;20511;-60
2021/08/04 12:36:07;;;;;;;0.75;0.70;;;26.10;43.50;;;;;;5031142;28;20341;-63
2021/08/04 12:38:42;;;;;;;0.70;0.52;;;26.10;43.40;;;;;;5033732;28;20048;-61
2021/08/04 12:41:09;;;;;;;1.13;0.77;;;26.10;43.40;;;;;;5031406;28;20041;-58
2021/08/04 12:43:41;;;;;;;0.80;0.50;;;26.10;43.30;;;;;;5033398;28;20116;-64
2021/08/04 12:46:09;;;;;;;0.63;0.50;;;26.10;43.20;;;;;;5033445;28;20030;-64
2021/08/04 12:48:43;;;;;;;0.90;0.57;;;26.10;43.10;;;;;;5033393;28;20434;-62
2021/08/04 12:51:22;;;;;;;1.70;0.55;;;26.20;43.10;;;;;;5032366;28;20035;-63
2021/08/04 12:54:03;;;;;;;0.50;0.45;;;26.20;43.10;;;;;;5033313;28;20436;-63
2021/08/04 12:56:37;;;;;;;0.60;0.40;;;26.20;42.90;;;;;;5031595;28;20037;-60
2021/08/04 12:59:05;;;;;;;0.75;0.60;;;26.20;43.00;;;;;;5031156;28;20552;-60